Aviation Digital Data Service (ADDS)

Output produced by METARs form (0804 UTC 21 October 2018)
found at http://aviationweather.gov/metar/data/
 
KPTW 210754Z AUTO 31007G15KT 10SM FEW023 FEW049 07/05 A2973 RMK AO2 SLP065 T00720050
KRDG 210754Z AUTO 31009KT 10SM BKN034 OVC050 08/06 A2973 RMK AO2 SLP072 T00830056
KRDG 210529Z 2106/2206 29010KT P6SM SCT035 BKN100 
     FM210700 31010G18KT P6SM -SHRA OVC035 
     FM211000 32014G22KT P6SM BKN035 
     FM211300 31016G28KT P6SM SCT045 
     FM212200 31010G18KT P6SM FEW045 
     FM220000 30006KT P6SM SKC 
     FM220300 VRB03KT P6SM SKC
       
KLNS 210753Z AUTO 32015G20KT 10SM -RA OVC034 08/04 A2974 RMK AO2 RAB48 SLP072 P0000 T00830044
KLNS 210559Z 2106/2206 30010KT P6SM SCT050 BKN100 
     FM210900 31018G26KT P6SM BKN050 
     FM211300 32018G28KT P6SM SCT060 
     FM212330 30008KT P6SM SKC
       
KABE 210751Z 30005KT 10SM OVC048 08/03 A2971 RMK AO2 SLP062 T00780033 $
KABE 210529Z 2106/2206 28008KT P6SM SCT035 BKN100 
     FM210700 31010G18KT P6SM -SHRA OVC035 
     FM211000 32012G20KT P6SM BKN035 
     FM211300 31016G28KT P6SM SCT045 
     FM212200 31010G18KT P6SM FEW045 
     FM220000 31006KT P6SM SKC 
     FM220300 VRB03KT P6SM SKC
       
KPNE 210754Z AUTO 31010G18KT 10SM CLR 10/05 A2969 RMK AO2 SLP054 T01000050
KPNE 210529Z 2106/2206 29010KT P6SM SCT035 BKN100 
     FM210900 31012G20KT P6SM -SHRA OVC035 
     FM211100 33014G22KT P6SM BKN035 
     FM211300 32018G30KT P6SM SCT045 
     FM212200 32010G18KT P6SM FEW045 
     FM220100 32006KT P6SM SKC 
     FM220500 28004KT P6SM SKC